Time;durP1;ratioP1;P1;durP2;ratioP2;P2;SDS_P1;SDS_P2;PMS_P1;PMS_P2;Temp;Humidity;BMP_temperature;BMP_pressure;BME280_temperature;BME280_humidity;BME280_pressure;Samples;Min_cycle;Max_cycle;Signal;HPM_P1;HPM_P2
2023/10/04 00:00:15;;;;;;;6.33;3.20;;;;;;;;;;5032920;28;20190;-77
2023/10/04 00:02:45;;;;;;;3.23;2.50;;;;;;;;;;5032946;28;20581;-77
2023/10/04 00:05:15;;;;;;;3.47;2.70;;;;;;;;;;5031730;28;20178;-77
2023/10/04 00:07:48;;;;;;;4.23;2.70;;;;;;;;;;5031668;28;20661;-77
2023/10/04 00:10:15;;;;;;;4.20;2.90;;;;;;;;;;5032398;28;20175;-77
2023/10/04 00:12:45;;;;;;;4.43;2.80;;;;;;;;;;5064340;28;20178;-77
2023/10/04 00:15:13;;;;;;;3.77;2.50;;;;;;;;;;5032321;28;20201;-77
2023/10/04 00:17:41;;;;;;;6.53;3.13;;;;;;;;;;5034511;28;20197;-77
2023/10/04 00:20:13;;;;;;;5.13;2.90;;;;;;;;;;5052464;28;20557;-77
2023/10/04 00:22:40;;;;;;;3.67;2.70;;;;;;;;;;5052238;28;20178;-77
2023/10/04 00:25:22;;;;;;;5.03;2.73;;;;;;;;;;5017848;28;20212;-77
2023/10/04 00:27:49;;;;;;;4.17;2.43;;;;;;;;;;5034281;28;20236;-77
2023/10/04 00:30:17;;;;;;;7.03;2.73;;;;;;;;;;5036663;28;20211;-77
2023/10/04 00:32:47;;;;;;;6.13;2.50;;;;;;;;;;5039121;28;20186;-77
2023/10/04 00:35:15;;;;;;;4.17;2.60;;;;;;;;;;5017711;28;20661;-77
2023/10/04 00:37:45;;;;;;;3.37;2.50;;;;;;;;;;5050687;28;20170;-77
2023/10/04 00:40:18;;;;;;;5.77;2.40;;;;;;;;;;5036153;28;20194;-77
2023/10/04 00:42:49;;;;;;;4.83;2.77;;;;;;;;;;5071906;28;20162;-77
2023/10/04 00:45:22;;;;;;;3.50;2.43;;;;;;;;;;5063743;28;20213;-76
2023/10/04 00:47:51;;;;;;;5.03;2.60;;;;;;;;;;5031649;28;20210;-77
2023/10/04 00:50:22;;;;;;;3.33;2.40;;;;;;;;;;5030392;28;20266;-77
2023/10/04 00:52:55;;;;;;;3.27;2.50;;;;;;;;;;5063783;28;20166;-77
2023/10/04 00:55:22;;;;;;;4.27;2.70;;;;;;;;;;5030339;28;20194;-77
2023/10/04 00:57:49;;;;;;;4.27;2.77;;;;;;;;;;5054717;28;20209;-77
2023/10/04 01:00:19;;;;;;;5.50;2.93;;;;;;;;;;5032813;28;20217;-77
2023/10/04 01:02:46;;;;;;;6.23;2.60;;;;;;;;;;5017266;28;20170;-77
2023/10/04 01:05:15;;;;;;;4.13;2.60;;;;;;;;;;5017182;28;20186;-77
2023/10/04 01:07:41;;;;;;;3.47;2.67;;;;;;;;;;5051091;28;20182;-77
2023/10/04 01:10:14;;;;;;;6.33;2.70;;;;;;;;;;5033299;28;20186;-77
2023/10/04 01:12:42;;;;;;;4.17;2.73;;;;;;;;;;5033484;28;20534;-77
2023/10/04 01:17:53;;;;;;;5.90;2.73;;;;;;;;;;5033315;28;20668;-77
2023/10/04 01:20:23;;;;;;;3.37;2.60;;;;;;;;;;5016919;28;20182;-77
2023/10/04 01:22:50;;;;;;;5.13;2.80;;;;;;;;;;5050919;28;20166;-77
2023/10/04 01:25:18;;;;;;;5.57;2.50;;;;;;;;;;5033211;28;20185;-77
2023/10/04 01:27:45;;;;;;;3.90;2.30;;;;;;;;;;5033177;28;20217;-77
2023/10/04 01:30:13;;;;;;;3.80;2.70;;;;;;;;;;5033135;28;20186;-77
2023/10/04 01:32:39;;;;;;;4.60;2.60;;;;;;;;;;5049775;28;20714;-77
2023/10/04 01:35:06;;;;;;;3.40;2.50;;;;;;;;;;5050746;28;20251;-77
2023/10/04 01:37:38;;;;;;;5.00;2.57;;;;;;;;;;5050809;28;20261;-77
2023/10/04 01:40:12;;;;;;;3.30;2.20;;;;;;;;;;5050855;28;20224;-76
2023/10/04 01:45:11;;;;;;;4.73;2.60;;;;;;;;;;5029316;28;20222;-78
2023/10/04 01:47:38;;;;;;;4.20;3.00;;;;;;;;;;5031252;28;20261;-78
2023/10/04 01:50:06;;;;;;;3.30;2.60;;;;;;;;;;5030657;28;20207;-78
2023/10/04 01:52:33;;;;;;;5.10;2.70;;;;;;;;;;4998450;28;20265;-77
2023/10/04 01:55:00;;;;;;;4.00;2.67;;;;;;;;;;5020752;28;20206;-78
2023/10/04 01:57:26;;;;;;;3.70;2.63;;;;;;;;;;5002473;28;20188;-78
2023/10/04 01:59:54;;;;;;;6.23;2.63;;;;;;;;;;4986372;28;20228;-78
2023/10/04 02:02:22;;;;;;;3.93;2.50;;;;;;;;;;4998385;28;20257;-78
2023/10/04 02:04:53;;;;;;;6.10;2.70;;;;;;;;;;5027698;28;20206;-78
2023/10/04 02:07:21;;;;;;;3.60;2.57;;;;;;;;;;5007630;28;20727;-78
2023/10/04 02:09:48;;;;;;;3.47;2.40;;;;;;;;;;5003989;28;20202;-77
2023/10/04 02:12:18;;;;;;;5.43;2.77;;;;;;;;;;5010556;28;20187;-79
2023/10/04 02:14:45;;;;;;;4.87;2.93;;;;;;;;;;5007857;28;20580;-78
2023/10/04 02:17:15;;;;;;;5.47;2.67;;;;;;;;;;5023255;28;20187;-78
2023/10/04 02:19:42;;;;;;;3.37;2.60;;;;;;;;;;5003746;28;20541;-78
2023/10/04 02:22:08;;;;;;;3.90;2.50;;;;;;;;;;5020791;28;20184;-78
2023/10/04 02:24:35;;;;;;;5.00;2.33;;;;;;;;;;4993561;28;20547;-78
2023/10/04 02:27:01;;;;;;;5.40;2.70;;;;;;;;;;5004556;28;20194;-78
2023/10/04 02:29:27;;;;;;;6.30;2.83;;;;;;;;;;4977005;28;20742;-78
2023/10/04 02:31:53;;;;;;;5.47;2.70;;;;;;;;;;4976838;28;20206;-78
2023/10/04 02:34:21;;;;;;;3.13;2.40;;;;;;;;;;4993223;28;20186;-78
2023/10/04 02:36:51;;;;;;;2.80;2.17;;;;;;;;;;5011409;28;20191;-77
2023/10/04 02:39:17;;;;;;;3.27;2.30;;;;;;;;;;5004792;28;20183;-78
2023/10/04 02:41:47;;;;;;;5.27;2.70;;;;;;;;;;5024052;28;20268;-78
2023/10/04 02:44:17;;;;;;;4.83;2.50;;;;;;;;;;5004211;28;20195;-77
2023/10/04 02:46:45;;;;;;;4.90;2.53;;;;;;;;;;5012836;28;20658;-78
2023/10/04 02:49:11;;;;;;;3.90;2.60;;;;;;;;;;5009075;28;20187;-78
2023/10/04 02:51:37;;;;;;;3.50;2.50;;;;;;;;;;5023138;28;20290;-78
2023/10/04 02:54:04;;;;;;;3.73;2.30;;;;;;;;;;5024293;28;20194;-78
2023/10/04 02:56:34;;;;;;;3.93;2.43;;;;;;;;;;4988604;28;20223;-78
2023/10/04 02:59:00;;;;;;;3.30;2.47;;;;;;;;;;4987593;28;20219;-78
2023/10/04 03:01:27;;;;;;;4.20;2.60;;;;;;;;;;4977564;28;20225;-78
2023/10/04 03:03:55;;;;;;;3.73;2.73;;;;;;;;;;4995751;28;20186;-78
2023/10/04 03:06:24;;;;;;;3.60;2.60;;;;;;;;;;5003512;28;20651;-78
2023/10/04 03:08:55;;;;;;;4.63;2.63;;;;;;;;;;5005721;28;20689;-78
2023/10/04 03:11:21;;;;;;;3.80;2.77;;;;;;;;;;5030098;28;20220;-78
2023/10/04 03:13:47;;;;;;;5.83;2.50;;;;;;;;;;5008910;28;20214;-77
2023/10/04 03:16:14;;;;;;;5.10;2.40;;;;;;;;;;5004441;28;20722;-78
2023/10/04 03:18:44;;;;;;;3.73;2.47;;;;;;;;;;5010262;28;20190;-78
2023/10/04 03:21:16;;;;;;;3.10;2.27;;;;;;;;;;5004960;28;20203;-78
2023/10/04 03:23:44;;;;;;;2.87;2.07;;;;;;;;;;5010960;28;20266;-78
2023/10/04 03:26:14;;;;;;;3.10;2.33;;;;;;;;;;5001686;28;20190;-78
2023/10/04 03:28:42;;;;;;;4.17;2.37;;;;;;;;;;5000733;28;20324;-78
2023/10/04 03:31:14;;;;;;;4.03;2.30;;;;;;;;;;5004745;28;20214;-78
2023/10/04 03:33:45;;;;;;;4.87;2.53;;;;;;;;;;4995653;28;20182;-78
2023/10/04 03:36:17;;;;;;;4.07;2.60;;;;;;;;;;4987518;28;20321;-78
2023/10/04 03:38:49;;;;;;;3.47;2.27;;;;;;;;;;5006354;28;20188;-78
2023/10/04 03:41:16;;;;;;;4.73;2.40;;;;;;;;;;5005662;28;20288;-78
2023/10/04 03:43:43;;;;;;;4.93;2.73;;;;;;;;;;5024815;28;20201;-78
2023/10/04 03:46:18;;;;;;;2.90;2.33;;;;;;;;;;4993822;28;20191;-78
2023/10/04 03:48:49;;;;;;;4.23;2.60;;;;;;;;;;5006785;28;20183;-78
2023/10/04 03:51:23;;;;;;;4.83;2.87;;;;;;;;;;4988088;28;20314;-78
2023/10/04 03:53:53;;;;;;;3.57;2.80;;;;;;;;;;4997486;28;20312;-77
2023/10/04 03:56:22;;;;;;;3.10;2.27;;;;;;;;;;4996985;28;20875;-78
2023/10/04 03:58:48;;;;;;;4.97;2.40;;;;;;;;;;5016723;28;20179;-78
2023/10/04 04:01:15;;;;;;;3.97;2.17;;;;;;;;;;5006141;28;20238;-78
2023/10/04 04:03:41;;;;;;;4.20;2.37;;;;;;;;;;5010943;28;20332;-78
2023/10/04 04:06:08;;;;;;;2.60;2.17;;;;;;;;;;5010568;28;20198;-78
2023/10/04 04:08:34;;;;;;;3.53;2.40;;;;;;;;;;5012889;28;20545;-78
2023/10/04 04:11:01;;;;;;;3.80;2.27;;;;;;;;;;5027611;28;20312;-77
2023/10/04 04:13:27;;;;;;;3.40;2.17;;;;;;;;;;5003775;28;20179;-78
2023/10/04 04:15:54;;;;;;;4.07;2.47;;;;;;;;;;5004780;28;20728;-78
2023/10/04 04:18:21;;;;;;;4.00;1.83;;;;;;;;;;5005681;28;20184;-78
2023/10/04 04:20:50;;;;;;;4.57;2.57;;;;;;;;;;5003060;28;20362;-78
2023/10/04 04:23:16;;;;;;;6.03;2.43;;;;;;;;;;4970470;28;20206;-78
2023/10/04 04:25:45;;;;;;;2.47;1.97;;;;;;;;;;4971240;28;20195;-78
2023/10/04 04:28:14;;;;;;;4.03;2.40;;;;;;;;;;4970387;28;20241;-78
2023/10/04 04:30:41;;;;;;;6.10;2.70;;;;;;;;;;4998264;28;20208;-78
2023/10/04 04:33:07;;;;;;;4.17;2.57;;;;;;;;;;5002249;28;20203;-78
2023/10/04 04:38:24;;;;;;;3.87;3.00;;;;;;;;;;4976543;28;20245;-78
2023/10/04 04:40:52;;;;;;;4.13;2.60;;;;;;;;;;4990930;28;20203;-78
2023/10/04 04:45:56;;;;;;;5.20;2.77;;;;;;;;;;4989870;28;20197;-78
2023/10/04 04:48:35;;;;;;;3.80;2.67;;;;;;;;;;4993122;28;20249;-78
2023/10/04 04:53:35;;;;;;;4.23;2.70;;;;;;;;;;5009101;28;20870;-78
2023/10/04 04:56:02;;;;;;;4.70;2.83;;;;;;;;;;5012841;28;20223;-78
2023/10/04 04:58:30;;;;;;;4.37;3.00;;;;;;;;;;4994607;28;20608;-78
2023/10/04 05:01:00;;;;;;;4.47;3.17;;;;;;;;;;4980427;28;20210;-78
2023/10/04 05:03:26;;;;;;;4.90;2.90;;;;;;;;;;4993873;28;20183;-78
2023/10/04 05:05:55;;;;;;;3.87;2.80;;;;;;;;;;5017205;28;20252;-78
2023/10/04 05:08:22;;;;;;;6.77;2.97;;;;;;;;;;5007834;28;20191;-78
2023/10/04 05:10:50;;;;;;;5.10;3.10;;;;;;;;;;5005229;28;20200;-78
2023/10/04 05:13:22;;;;;;;4.20;2.80;;;;;;;;;;5011550;28;20832;-78
2023/10/04 05:15:49;;;;;;;5.27;2.90;;;;;;;;;;4995457;28;20744;-78
2023/10/04 05:18:16;;;;;;;4.93;3.00;;;;;;;;;;5007528;28;20191;-78
2023/10/04 05:20:43;;;;;;;5.33;2.83;;;;;;;;;;5000984;28;20200;-77
2023/10/04 05:23:09;;;;;;;4.93;2.67;;;;;;;;;;4987891;28;20183;-76
2023/10/04 05:25:36;;;;;;;4.77;2.67;;;;;;;;;;5005240;28;20240;-78
2023/10/04 05:28:08;;;;;;;3.93;2.47;;;;;;;;;;4978986;28;20183;-80
2023/10/04 05:30:34;;;;;;;4.87;3.30;;;;;;;;;;4951158;28;20211;-86
2023/10/04 05:33:01;;;;;;;4.17;2.80;;;;;;;;;;4967416;28;20536;-85
2023/10/04 05:35:27;;;;;;;6.10;2.70;;;;;;;;;;4947542;28;20572;-83
2023/10/04 05:37:53;;;;;;;7.33;3.20;;;;;;;;;;4990089;28;20245;-82
2023/10/04 05:40:25;;;;;;;6.47;3.20;;;;;;;;;;5004976;28;20206;-80
2023/10/04 05:42:56;;;;;;;5.57;3.10;;;;;;;;;;4969790;28;20218;-83
2023/10/04 05:45:23;;;;;;;4.67;3.00;;;;;;;;;;4971917;28;20271;-81
2023/10/04 05:47:50;;;;;;;6.00;3.40;;;;;;;;;;4985713;28;20215;-79
2023/10/04 05:50:23;;;;;;;5.23;3.33;;;;;;;;;;4981569;28;20744;-84
2023/10/04 05:52:49;;;;;;;6.07;3.30;;;;;;;;;;5002670;28;20175;-78
2023/10/04 05:55:17;;;;;;;5.40;3.37;;;;;;;;;;5002370;28;20211;-78
2023/10/04 05:57:45;;;;;;;6.40;3.50;;;;;;;;;;4996200;28;20226;-79
2023/10/04 06:00:23;;;;;;;4.23;3.17;;;;;;;;;;5014303;28;20207;-79
2023/10/04 06:02:52;;;;;;;5.27;3.10;;;;;;;;;;5001357;28;20209;-79
2023/10/04 06:05:20;;;;;;;4.80;3.10;;;;;;;;;;5001619;28;20179;-79
2023/10/04 06:07:47;;;;;;;4.77;3.10;;;;;;;;;;5011996;28;20221;-79
2023/10/04 06:10:14;;;;;;;5.80;3.30;;;;;;;;;;5013517;28;20258;-78
2023/10/04 06:12:40;;;;;;;4.97;3.00;;;;;;;;;;4992921;28;20309;-79
2023/10/04 06:15:10;;;;;;;4.97;2.90;;;;;;;;;;5003500;28;20212;-79
2023/10/04 06:17:44;;;;;;;7.70;3.63;;;;;;;;;;4982986;28;20261;-79
2023/10/04 06:20:24;;;;;;;5.83;3.30;;;;;;;;;;5007660;28;20202;-79
2023/10/04 06:22:55;;;;;;;6.90;3.70;;;;;;;;;;5000219;28;20179;-79
2023/10/04 06:25:22;;;;;;;5.97;3.47;;;;;;;;;;5010325;28;20191;-79
2023/10/04 06:27:50;;;;;;;6.33;3.90;;;;;;;;;;4999258;28;20190;-78
2023/10/04 06:30:20;;;;;;;6.00;3.50;;;;;;;;;;4989814;28;20257;-78
2023/10/04 06:32:46;;;;;;;6.20;3.87;;;;;;;;;;5007181;28;20197;-79
2023/10/04 06:35:13;;;;;;;7.13;4.27;;;;;;;;;;5013656;28;20213;-78
2023/10/04 06:37:39;;;;;;;8.23;4.00;;;;;;;;;;5011397;28;20221;-79
2023/10/04 06:40:14;;;;;;;8.40;3.87;;;;;;;;;;5009071;28;20289;-79
2023/10/04 06:42:43;;;;;;;7.30;3.80;;;;;;;;;;4994277;28;20332;-79
2023/10/04 06:45:12;;;;;;;5.87;3.97;;;;;;;;;;5017827;28;20213;-79
2023/10/04 06:47:38;;;;;;;7.30;4.00;;;;;;;;;;4994711;28;20237;-78
2023/10/04 06:50:06;;;;;;;7.10;4.10;;;;;;;;;;4984811;28;20762;-79
2023/10/04 06:52:35;;;;;;;6.50;3.80;;;;;;;;;;4976852;28;20191;-79
2023/10/04 06:55:02;;;;;;;6.67;3.87;;;;;;;;;;5002343;28;20427;-79
2023/10/04 06:57:30;;;;;;;5.63;3.57;;;;;;;;;;4981870;28;20195;-78
2023/10/04 06:59:56;;;;;;;6.87;3.70;;;;;;;;;;5010558;28;20203;-78
2023/10/04 07:02:23;;;;;;;5.03;3.47;;;;;;;;;;5001328;28;20571;-79
2023/10/04 07:04:50;;;;;;;6.10;3.67;;;;;;;;;;4994826;28;20308;-77
2023/10/04 07:07:17;;;;;;;6.80;3.60;;;;;;;;;;5025429;28;20654;-78
2023/10/04 07:09:44;;;;;;;6.23;3.93;;;;;;;;;;5001968;28;20203;-78
2023/10/04 07:12:10;;;;;;;7.90;3.77;;;;;;;;;;5025489;28;20210;-78
2023/10/04 07:14:36;;;;;;;6.83;4.03;;;;;;;;;;5012744;28;20198;-78
2023/10/04 07:17:02;;;;;;;5.80;3.80;;;;;;;;;;5002968;28;20218;-77
2023/10/04 07:19:29;;;;;;;6.07;3.70;;;;;;;;;;5017798;28;20211;-78
2023/10/04 07:21:57;;;;;;;5.03;3.40;;;;;;;;;;5006587;28;20183;-78
2023/10/04 07:24:23;;;;;;;9.13;4.40;;;;;;;;;;5004466;28;20258;-78
2023/10/04 07:26:55;;;;;;;7.50;3.90;;;;;;;;;;5017640;28;20191;-78
2023/10/04 07:29:21;;;;;;;7.63;4.07;;;;;;;;;;5023415;28;20218;-78
2023/10/04 07:31:50;;;;;;;6.77;3.70;;;;;;;;;;5022161;28;20191;-78
2023/10/04 07:34:16;;;;;;;6.00;4.10;;;;;;;;;;5021987;28;20179;-78
2023/10/04 07:36:42;;;;;;;6.10;3.90;;;;;;;;;;4999804;28;20220;-78
2023/10/04 07:39:08;;;;;;;6.40;3.70;;;;;;;;;;5018163;28;20209;-78
2023/10/04 07:41:37;;;;;;;4.53;3.37;;;;;;;;;;4997659;28;20245;-78
2023/10/04 07:44:03;;;;;;;6.80;3.73;;;;;;;;;;5017240;28;20203;-78
2023/10/04 07:46:31;;;;;;;6.37;3.37;;;;;;;;;;5020995;28;20198;-78
2023/10/04 07:48:59;;;;;;;6.20;3.40;;;;;;;;;;5028833;28;20555;-78
2023/10/04 07:51:25;;;;;;;5.00;3.10;;;;;;;;;;5017941;28;20573;-78
2023/10/04 07:53:52;;;;;;;7.30;3.30;;;;;;;;;;5021312;28;20228;-78
2023/10/04 07:56:19;;;;;;;8.30;3.53;;;;;;;;;;5023918;28;20210;-78
2023/10/04 07:58:46;;;;;;;9.07;3.33;;;;;;;;;;5022903;28;20229;-78
2023/10/04 08:01:17;;;;;;;4.80;3.23;;;;;;;;;;5019567;28;20210;-78
2023/10/04 08:03:43;;;;;;;6.27;3.43;;;;;;;;;;5018981;28;20187;-78
2023/10/04 08:06:11;;;;;;;4.60;3.07;;;;;;;;;;5025318;28;20191;-78
2023/10/04 08:08:41;;;;;;;6.53;3.30;;;;;;;;;;5010508;28;20671;-78
2023/10/04 08:11:08;;;;;;;5.40;3.23;;;;;;;;;;5027537;28;20207;-78
2023/10/04 08:13:34;;;;;;;6.63;3.27;;;;;;;;;;5017230;28;20187;-78
2023/10/04 08:16:04;;;;;;;6.30;3.37;;;;;;;;;;5018933;28;20206;-78
2023/10/04 08:18:30;;;;;;;5.83;3.50;;;;;;;;;;5014001;28;20336;-78
2023/10/04 08:20:57;;;;;;;11.63;4.07;;;;;;;;;;5002991;28;21019;-78
2023/10/04 08:23:23;;;;;;;6.60;3.83;;;;;;;;;;5021610;28;20392;-78
2023/10/04 08:25:52;;;;;;;8.10;3.80;;;;;;;;;;5025244;28;20182;-78
2023/10/04 08:28:18;;;;;;;9.43;3.30;;;;;;;;;;5015132;28;20194;-78
2023/10/04 08:30:44;;;;;;;7.80;3.60;;;;;;;;;;5014497;28;20321;-78
2023/10/04 08:33:11;;;;;;;5.60;3.40;;;;;;;;;;5020897;28;20647;-78
2023/10/04 08:35:37;;;;;;;6.23;3.33;;;;;;;;;;5017722;28;20214;-78
2023/10/04 08:38:04;;;;;;;6.63;3.20;;;;;;;;;;5002888;28;20190;-78
2023/10/04 08:40:31;;;;;;;7.13;3.90;;;;;;;;;;4992086;28;20206;-78
2023/10/04 08:42:58;;;;;;;8.40;3.43;;;;;;;;;;4998386;28;20269;-78
2023/10/04 08:45:29;;;;;;;7.23;3.60;;;;;;;;;;5003002;28;20232;-78
2023/10/04 08:47:59;;;;;;;5.93;3.33;;;;;;;;;;5010218;28;20275;-78
2023/10/04 08:50:31;;;;;;;9.33;3.90;;;;;;;;;;5018423;28;20209;-78
2023/10/04 08:53:21;;;;;;;7.60;3.77;;;;;;;;;;5018145;28;20554;-78
2023/10/04 08:55:51;;;;;;;8.40;4.20;;;;;;;;;;4995323;28;20673;-78
2023/10/04 08:58:19;;;;;;;7.97;3.57;;;;;;;;;;5005392;28;20214;-78
2023/10/04 09:00:45;;;;;;;5.23;3.40;;;;;;;;;;4990348;28;20204;-78
2023/10/04 09:03:13;;;;;;;6.67;3.80;;;;;;;;;;5011763;28;20183;-78
2023/10/04 09:05:46;;;;;;;7.07;3.73;;;;;;;;;;5016922;28;20659;-78
2023/10/04 09:08:12;;;;;;;6.93;3.33;;;;;;;;;;5002466;28;20198;-78
2023/10/04 09:10:39;;;;;;;5.40;3.60;;;;;;;;;;5001947;28;20203;-78
2023/10/04 09:13:06;;;;;;;7.87;3.67;;;;;;;;;;5002830;28;20191;-78
2023/10/04 09:15:32;;;;;;;9.27;3.47;;;;;;;;;;5007056;28;20706;-78
2023/10/04 09:17:58;;;;;;;8.07;4.10;;;;;;;;;;5022060;28;20555;-78
2023/10/04 09:20:29;;;;;;;7.60;3.90;;;;;;;;;;5014095;28;20203;-78
2023/10/04 09:22:55;;;;;;;9.63;4.50;;;;;;;;;;5020725;28;20232;-77
2023/10/04 09:25:22;;;;;;;7.33;4.00;;;;;;;;;;5009261;28;20277;-79
2023/10/04 09:27:55;;;;;;;6.87;4.33;;;;;;;;;;5003761;28;20593;-78
2023/10/04 09:30:23;;;;;;;10.97;4.50;;;;;;;;;;5022816;28;20222;-78
2023/10/04 09:32:51;;;;;;;7.83;5.17;;;;;;;;;;4985420;28;20594;-82
2023/10/04 09:35:18;;;;;;;7.47;5.27;;;;;;;;;;5002262;28;20217;-80
2023/10/04 09:37:45;;;;;;;9.83;5.10;;;;;;;;;;4974521;28;20179;-81
2023/10/04 09:40:12;;;;;;;7.60;4.67;;;;;;;;;;5020083;28;20210;-78
2023/10/04 09:42:51;;;;;;;7.13;4.60;;;;;;;;;;5009102;28;20186;-77
2023/10/04 09:45:21;;;;;;;7.07;4.50;;;;;;;;;;4991868;28;20195;-79
2023/10/04 09:47:51;;;;;;;7.67;4.63;;;;;;;;;;5021143;28;20185;-78
2023/10/04 09:50:25;;;;;;;9.43;4.70;;;;;;;;;;5021101;28;20776;-78
2023/10/04 09:52:52;;;;;;;6.80;4.20;;;;;;;;;;5016057;28;20187;-78
2023/10/04 09:55:20;;;;;;;8.73;4.30;;;;;;;;;;4984318;28;20225;-77
2023/10/04 09:57:48;;;;;;;10.40;4.80;;;;;;;;;;5021010;28;20180;-77
2023/10/04 10:00:18;;;;;;;6.73;4.33;;;;;;;;;;4988099;28;20210;-82
2023/10/04 10:02:51;;;;;;;9.60;4.73;;;;;;;;;;5014066;28;20189;-79
2023/10/04 10:05:31;;;;;;;9.73;4.83;;;;;;;;;;5005914;28;20730;-79
2023/10/04 10:08:04;;;;;;;8.83;4.03;;;;;;;;;;5012294;28;20201;-80
2023/10/04 10:10:34;;;;;;;10.47;4.37;;;;;;;;;;5018378;28;20275;-79
2023/10/04 10:13:00;;;;;;;10.10;4.10;;;;;;;;;;5018562;28;20566;-79
2023/10/04 10:15:27;;;;;;;9.30;3.40;;;;;;;;;;5004073;28;20210;-80
2023/10/04 10:17:53;;;;;;;7.17;3.30;;;;;;;;;;5024397;28;20183;-80
2023/10/04 10:20:19;;;;;;;7.07;3.50;;;;;;;;;;5020641;28;20210;-80
2023/10/04 10:23:08;;;;;;;6.90;3.47;;;;;;;;;;4992607;28;20683;-80
2023/10/04 10:25:37;;;;;;;6.97;3.10;;;;;;;;;;5016935;28;20182;-79
2023/10/04 10:28:04;;;;;;;8.37;2.83;;;;;;;;;;5016368;28;20753;-79
2023/10/04 10:30:34;;;;;;;6.67;3.00;;;;;;;;;;5021977;28;20221;-79
2023/10/04 10:33:02;;;;;;;7.97;3.03;;;;;;;;;;5019984;28;20640;-79
2023/10/04 10:36:10;;;;;;;7.73;3.07;;;;;;;;;;5022537;28;20210;-79
2023/10/04 10:38:43;;;;;;;6.67;3.10;;;;;;;;;;5013647;28;20198;-79
2023/10/04 10:41:33;;;;;;;7.77;2.53;;;;;;;;;;5018713;28;21406;-79
2023/10/04 10:44:12;;;;;;;6.87;2.70;;;;;;;;;;5002457;28;20206;-79
2023/10/04 10:46:55;;;;;;;6.07;2.60;;;;;;;;;;5020429;28;20183;-79
2023/10/04 10:49:37;;;;;;;8.03;2.90;;;;;;;;;;5019354;28;20198;-79
2023/10/04 10:52:03;;;;;;;8.77;3.27;;;;;;;;;;5002030;28;20179;-79
2023/10/04 10:54:29;;;;;;;7.60;2.80;;;;;;;;;;5027954;28;20270;-79
2023/10/04 10:56:56;;;;;;;5.00;2.40;;;;;;;;;;5027936;28;20218;-79
2023/10/04 10:59:22;;;;;;;5.53;3.00;;;;;;;;;;5030757;28;20183;-80
2023/10/04 11:01:48;;;;;;;5.43;2.40;;;;;;;;;;5023631;28;20742;-79
2023/10/04 11:04:16;;;;;;;6.30;2.80;;;;;;;;;;5025629;28;20218;-79
2023/10/04 11:06:43;;;;;;;5.10;2.80;;;;;;;;;;5021748;28;20214;-79
2023/10/04 11:09:09;;;;;;;5.27;2.77;;;;;;;;;;5021498;28;20198;-80
2023/10/04 11:11:35;;;;;;;5.83;2.90;;;;;;;;;;4985378;28;20209;-79
2023/10/04 11:14:06;;;;;;;6.17;2.67;;;;;;;;;;5018003;28;20249;-79
2023/10/04 11:16:33;;;;;;;7.17;2.77;;;;;;;;;;5019690;28;20214;-79
2023/10/04 11:19:02;;;;;;;5.63;2.90;;;;;;;;;;5008185;28;20200;-79
2023/10/04 11:21:29;;;;;;;6.33;3.00;;;;;;;;;;5021443;28;20202;-79
2023/10/04 11:23:55;;;;;;;5.80;2.63;;;;;;;;;;5011183;28;20211;-79
2023/10/04 11:26:22;;;;;;;7.03;2.80;;;;;;;;;;5023470;28;20213;-79
2023/10/04 11:28:49;;;;;;;5.03;2.53;;;;;;;;;;4999126;28;20560;-79
2023/10/04 11:31:16;;;;;;;5.37;2.70;;;;;;;;;;5021157;28;20210;-79
2023/10/04 11:33:49;;;;;;;4.83;2.73;;;;;;;;;;5019193;28;20199;-79
2023/10/04 11:36:19;;;;;;;7.33;2.97;;;;;;;;;;5011246;28;20203;-79
2023/10/04 11:38:49;;;;;;;6.53;3.10;;;;;;;;;;5021507;28;20662;-79
2023/10/04 11:41:15;;;;;;;6.27;3.00;;;;;;;;;;5001475;28;20199;-79
2023/10/04 11:43:44;;;;;;;5.33;3.00;;;;;;;;;;5004297;28;20762;-79
2023/10/04 11:46:10;;;;;;;4.07;2.57;;;;;;;;;;5019831;28;20187;-79
2023/10/04 11:48:36;;;;;;;5.97;2.83;;;;;;;;;;5023277;28;20281;-79
2023/10/04 11:51:05;;;;;;;5.80;2.97;;;;;;;;;;4991110;28;20219;-79
2023/10/04 11:53:33;;;;;;;5.27;2.83;;;;;;;;;;5015845;28;20186;-80
2023/10/04 11:56:00;;;;;;;6.40;3.30;;;;;;;;;;5005411;28;20215;-80
2023/10/04 11:58:30;;;;;;;4.43;2.90;;;;;;;;;;5007582;28;20210;-80
2023/10/04 12:01:11;;;;;;;7.13;3.10;;;;;;;;;;5018124;28;20207;-80
2023/10/04 12:03:37;;;;;;;7.83;3.57;;;;;;;;;;4998728;28;20189;-80
2023/10/04 12:06:04;;;;;;;6.70;3.70;;;;;;;;;;5000326;28;20639;-80
2023/10/04 12:08:30;;;;;;;7.13;3.77;;;;;;;;;;5028321;28;20195;-79
2023/10/04 12:10:56;;;;;;;6.13;3.67;;;;;;;;;;5006017;28;20207;-80
2023/10/04 12:13:23;;;;;;;7.13;3.63;;;;;;;;;;5004500;28;20232;-80
2023/10/04 12:15:49;;;;;;;6.70;3.40;;;;;;;;;;5028552;28;20203;-80
2023/10/04 12:18:15;;;;;;;6.53;3.40;;;;;;;;;;5017053;28;20706;-80
2023/10/04 12:20:44;;;;;;;5.57;3.23;;;;;;;;;;5024052;28;20662;-80
2023/10/04 12:23:11;;;;;;;5.90;3.77;;;;;;;;;;5024686;28;20293;-80
2023/10/04 12:25:38;;;;;;;10.30;4.07;;;;;;;;;;5021141;28;20564;-80
2023/10/04 12:28:08;;;;;;;6.67;3.80;;;;;;;;;;5024975;28;20603;-79
2023/10/04 12:30:37;;;;;;;8.30;3.90;;;;;;;;;;5024835;28;20202;-80
2023/10/04 12:33:05;;;;;;;7.90;4.17;;;;;;;;;;5022340;28;20218;-79
2023/10/04 12:35:31;;;;;;;9.47;4.03;;;;;;;;;;5020176;28;20595;-80
2023/10/04 12:37:58;;;;;;;7.97;3.73;;;;;;;;;;5017507;28;20230;-79
2023/10/04 12:40:24;;;;;;;8.30;3.73;;;;;;;;;;5019928;28;20710;-80
2023/10/04 12:42:53;;;;;;;6.77;3.87;;;;;;;;;;5020617;28;20270;-80
2023/10/04 12:45:20;;;;;;;6.50;3.70;;;;;;;;;;5026860;28;20195;-80
2023/10/04 12:47:47;;;;;;;6.93;3.93;;;;;;;;;;5018304;28;20187;-79
2023/10/04 12:50:16;;;;;;;7.33;3.93;;;;;;;;;;5018346;28;20729;-80
2023/10/04 12:52:43;;;;;;;8.60;4.20;;;;;;;;;;5025181;28;20655;-79
2023/10/04 12:55:11;;;;;;;9.20;3.80;;;;;;;;;;5022818;28;20217;-80
2023/10/04 12:57:38;;;;;;;7.40;4.07;;;;;;;;;;5019179;28;20180;-79
2023/10/04 13:00:13;;;;;;;6.60;4.00;;;;;;;;;;5019284;28;20214;-79
2023/10/04 13:02:40;;;;;;;7.20;4.80;;;;;;;;;;5017687;28;20184;-80
2023/10/04 13:05:07;;;;;;;7.60;4.47;;;;;;;;;;5020822;28;20176;-80
2023/10/04 13:07:33;;;;;;;9.93;4.00;;;;;;;;;;5023218;28;20264;-80
2023/10/04 13:10:00;;;;;;;7.10;4.30;;;;;;;;;;5020339;28;20583;-80
2023/10/04 13:12:26;;;;;;;7.93;4.17;;;;;;;;;;5019965;28;20217;-80
2023/10/04 13:14:55;;;;;;;6.97;4.07;;;;;;;;;;5020557;28;20555;-80
2023/10/04 13:17:21;;;;;;;6.63;4.00;;;;;;;;;;5002175;28;20753;-80
2023/10/04 13:19:47;;;;;;;6.93;4.13;;;;;;;;;;5019809;28;20602;-80
2023/10/04 13:22:13;;;;;;;8.13;4.20;;;;;;;;;;5017797;28;20236;-80
2023/10/04 13:24:39;;;;;;;7.03;4.20;;;;;;;;;;5024040;28;20257;-80
2023/10/04 13:27:06;;;;;;;6.93;4.10;;;;;;;;;;5017084;28;20265;-80
2023/10/04 13:29:32;;;;;;;6.53;4.00;;;;;;;;;;5020816;28;20647;-80
2023/10/04 13:31:58;;;;;;;6.40;4.33;;;;;;;;;;5022218;28;20185;-80
2023/10/04 13:34:24;;;;;;;8.10;4.10;;;;;;;;;;5003314;28;20190;-80
2023/10/04 13:36:50;;;;;;;9.23;4.70;;;;;;;;;;5020994;28;20290;-80
2023/10/04 13:39:17;;;;;;;7.60;4.47;;;;;;;;;;5019649;28;20560;-80
2023/10/04 13:41:43;;;;;;;7.10;4.13;;;;;;;;;;5023582;28;20186;-80
2023/10/04 13:44:09;;;;;;;8.77;4.10;;;;;;;;;;5021924;28;20195;-79
2023/10/04 13:46:36;;;;;;;6.93;3.87;;;;;;;;;;5020000;28;20186;-80
2023/10/04 13:49:02;;;;;;;6.57;4.10;;;;;;;;;;5022942;28;20190;-80
2023/10/04 13:51:28;;;;;;;7.53;3.97;;;;;;;;;;5025433;28;20212;-79
2023/10/04 13:53:54;;;;;;;6.43;4.00;;;;;;;;;;5023445;28;20570;-80
2023/10/04 13:56:22;;;;;;;7.63;4.13;;;;;;;;;;5022009;28;20301;-80
2023/10/04 13:58:48;;;;;;;8.07;3.80;;;;;;;;;;5023315;28;20268;-80
2023/10/04 14:01:14;;;;;;;6.30;4.03;;;;;;;;;;5020714;28;20584;-80
2023/10/04 14:03:42;;;;;;;6.90;4.00;;;;;;;;;;5022384;28;20739;-80
2023/10/04 14:06:12;;;;;;;7.00;3.73;;;;;;;;;;5017272;28;20243;-80
2023/10/04 14:08:42;;;;;;;8.23;4.20;;;;;;;;;;5022416;28;20187;-80
2023/10/04 14:11:08;;;;;;;6.07;3.87;;;;;;;;;;5021928;28;20215;-79
2023/10/04 14:13:37;;;;;;;8.53;4.57;;;;;;;;;;5024945;28;20187;-80
2023/10/04 14:16:03;;;;;;;7.30;4.20;;;;;;;;;;5000748;28;20347;-79
2023/10/04 14:18:29;;;;;;;8.07;4.37;;;;;;;;;;5019290;28;20211;-80
2023/10/04 14:20:57;;;;;;;10.03;4.20;;;;;;;;;;5016643;28;20655;-80
2023/10/04 14:23:24;;;;;;;7.57;4.40;;;;;;;;;;5022373;28;20190;-79
2023/10/04 14:25:54;;;;;;;6.53;3.83;;;;;;;;;;4992860;28;20195;-80
2023/10/04 14:28:22;;;;;;;6.20;4.07;;;;;;;;;;5017842;28;20180;-80
2023/10/04 14:30:48;;;;;;;7.03;3.87;;;;;;;;;;5017659;28;20215;-80
2023/10/04 14:33:16;;;;;;;6.10;3.47;;;;;;;;;;5020345;28;20185;-80
2023/10/04 14:35:43;;;;;;;5.67;3.57;;;;;;;;;;5021157;28;20212;-80
2023/10/04 14:38:10;;;;;;;7.90;3.97;;;;;;;;;;5021271;28;20204;-80
2023/10/04 14:40:36;;;;;;;9.10;4.00;;;;;;;;;;5019956;28;20361;-80
2023/10/04 14:43:02;;;;;;;8.23;3.93;;;;;;;;;;5019069;28;20647;-80
2023/10/04 14:45:29;;;;;;;6.90;4.17;;;;;;;;;;5027439;28;20647;-80
2023/10/04 14:47:55;;;;;;;7.03;3.87;;;;;;;;;;5022226;28;20191;-79
2023/10/04 14:50:21;;;;;;;8.17;3.93;;;;;;;;;;5022005;28;20207;-80
2023/10/04 14:52:48;;;;;;;6.57;3.87;;;;;;;;;;5027403;28;20182;-80
2023/10/04 14:55:17;;;;;;;7.43;4.20;;;;;;;;;;5032691;28;20726;-79
2023/10/04 14:57:44;;;;;;;6.57;3.97;;;;;;;;;;5028286;28;20258;-80
2023/10/04 15:00:10;;;;;;;7.37;4.00;;;;;;;;;;5020914;28;20303;-79
2023/10/04 15:02:37;;;;;;;7.33;4.17;;;;;;;;;;5020698;28;20656;-80